ロンドン/ヒースロー の空港の天気 - METARとTAF

ロンドン・ヒースロー空港 ( EGLL / LHR ) - イギリス ロンドン
飛行場実況気象(Metar)
観測時間05/25 03:50 BST (05/25 02:50 UTC)
風向・風速不定 1m/s
視程7000m
天気現象弱い雨
全天を覆う雲 雲底高度 240m
気温13℃
湿度94%
気圧1017hPa
METAREGLL 250250Z AUTO VRB02KT 7000 -RA OVC008 13/12 Q1017 NOSIG
過去の天気等 Google飛行場航空写真 Wunderground天気予報

過去48時間のMETAR

飛行場予報(TAF)
発表時間: 5/25 00:06 BST (5/24 23:06 UTC)
予報対象時間: 25日1時 BST ~ 26日7時 BST
風向・風速不定 2m/s
視程10km以上
全天の4割程度の雲 雲底高度 910m
25日1時 BST ~ 25日4時 BST に徐々に
全天の8割程度の雲 雲底高度 300m
25日1時 BST ~ 25日7時 BST に 確率 30% で一時的に
視程7,000m
天気現象しゅう雨
25日3時 BST ~ 25日9時 BST に一時的に
全天の8割程度の雲 雲底高度 180m
25日10時 BST ~ 25日13時 BST に徐々に
全天の4割程度の雲 雲底高度 610m
25日18時 BST ~ 25日21時 BST に 確率 30% で一時的に
視程7,000m
天気現象しゅう雨
25日21時 BST ~ 25日24時 BST に徐々に
風向・風速北東 5m/s
25日21時 BST ~ 26日7時 BST に一時的に
視程7,000m
26日5時 BST ~ 26日7時 BST に 確率 30% で一時的に
視程4,000m
天気現象強いしゅう雨
全天の8割程度の雲 雲底高度 240m
全天の8割程度の積乱雲 雲底高度 1,460m
TAF EGLL 242306Z 2500/2606 VRB04KT 9999 SCT030
BECMG 2500/2503 BKN010
PROB30 TEMPO 2500/2506 7000 SHRA
TEMPO 2502/2508 BKN006
BECMG 2509/2512 SCT020
PROB30 TEMPO 2517/2520 7000 SHRA
BECMG 2520/2523 04010KT
TEMPO 2520/2606 7000
PROB30 TEMPO 2604/2606 4000 +SHRA BKN008 BKN048CB